sensor_id;sensor_type;location;lat;lon;timestamp;P1;durP1;ratioP1;P2;durP2;ratioP2
58306;SDS011;44116;50.884;4.768;2024-03-25T00:00:37;12.3;;;6.3;;
58306;SDS011;44116;50.884;4.768;2024-03-25T00:02:36;13.3;;;6.6;;
58306;SDS011;44116;50.884;4.768;2024-03-25T00:04:36;13.9;;;6.3;;
58306;SDS011;44116;50.884;4.768;2024-03-25T00:06:36;14.0;;;7.1;;
58306;SDS011;44116;50.884;4.768;2024-03-25T00:08:35;13.6;;;7.3;;
58306;SDS011;44116;50.884;4.768;2024-03-25T00:10:35;12.0;;;6.8;;
58306;SDS011;44116;50.884;4.768;2024-03-25T00:12:34;13.5;;;6.4;;
58306;SDS011;44116;50.884;4.768;2024-03-25T00:14:34;13.8;;;6.0;;
58306;SDS011;44116;50.884;4.768;2024-03-25T00:16:34;13.2;;;6.3;;
58306;SDS011;44116;50.884;4.768;2024-03-25T00:18:33;13.3;;;6.1;;
58306;SDS011;44116;50.884;4.768;2024-03-25T00:20:33;14.2;;;6.2;;
58306;SDS011;44116;50.884;4.768;2024-03-25T00:22:32;10.8;;;5.3;;
58306;SDS011;44116;50.884;4.768;2024-03-25T00:24:32;8.9;;;6.0;;
58306;SDS011;44116;50.884;4.768;2024-03-25T00:26:31;14.7;;;5.8;;
58306;SDS011;44116;50.884;4.768;2024-03-25T00:28:31;11.2;;;5.7;;
58306;SDS011;44116;50.884;4.768;2024-03-25T00:30:31;11.8;;;6.0;;
58306;SDS011;44116;50.884;4.768;2024-03-25T00:32:30;13.4;;;5.6;;
58306;SDS011;44116;50.884;4.768;2024-03-25T00:34:30;12.2;;;5.5;;
58306;SDS011;44116;50.884;4.768;2024-03-25T00:36:29;13.6;;;5.9;;
58306;SDS011;44116;50.884;4.768;2024-03-25T00:38:29;11.6;;;5.3;;
58306;SDS011;44116;50.884;4.768;2024-03-25T00:40:28;9.3;;;5.0;;
58306;SDS011;44116;50.884;4.768;2024-03-25T00:42:28;10.5;;;5.5;;
58306;SDS011;44116;50.884;4.768;2024-03-25T00:44:28;11.1;;;5.7;;
58306;SDS011;44116;50.884;4.768;2024-03-25T00:46:27;13.3;;;5.3;;
58306;SDS011;44116;50.884;4.768;2024-03-25T00:48:27;10.1;;;5.0;;
58306;SDS011;44116;50.884;4.768;2024-03-25T00:50:26;11.4;;;5.2;;
58306;SDS011;44116;50.884;4.768;2024-03-25T00:54:26;9.9;;;5.1;;
58306;SDS011;44116;50.884;4.768;2024-03-25T00:56:25;9.0;;;4.4;;
58306;SDS011;44116;50.884;4.768;2024-03-25T00:58:25;9.2;;;4.8;;
58306;SDS011;44116;50.884;4.768;2024-03-25T01:02:24;10.5;;;4.6;;
58306;SDS011;44116;50.884;4.768;2024-03-25T01:04:24;11.1;;;4.8;;
58306;SDS011;44116;50.884;4.768;2024-03-25T01:06:23;9.3;;;4.0;;
58306;SDS011;44116;50.884;4.768;2024-03-25T01:08:23;11.4;;;4.5;;
58306;SDS011;44116;50.884;4.768;2024-03-25T01:12:22;9.2;;;4.7;;
58306;SDS011;44116;50.884;4.768;2024-03-25T01:14:22;11.3;;;5.3;;
58306;SDS011;44116;50.884;4.768;2024-03-25T01:16:21;12.9;;;6.1;;
58306;SDS011;44116;50.884;4.768;2024-03-25T01:18:21;11.1;;;6.6;;
58306;SDS011;44116;50.884;4.768;2024-03-25T01:20:20;10.1;;;5.8;;
58306;SDS011;44116;50.884;4.768;2024-03-25T01:22:20;9.9;;;6.0;;
58306;SDS011;44116;50.884;4.768;2024-03-25T01:24:19;12.1;;;5.7;;
58306;SDS011;44116;50.884;4.768;2024-03-25T01:26:19;11.2;;;6.0;;
58306;SDS011;44116;50.884;4.768;2024-03-25T01:28:19;9.4;;;5.9;;
58306;SDS011;44116;50.884;4.768;2024-03-25T01:30:18;11.3;;;6.2;;
58306;SDS011;44116;50.884;4.768;2024-03-25T01:32:18;9.3;;;5.8;;
58306;SDS011;44116;50.884;4.768;2024-03-25T01:34:18;9.5;;;5.4;;
58306;SDS011;44116;50.884;4.768;2024-03-25T01:36:17;11.2;;;5.9;;
58306;SDS011;44116;50.884;4.768;2024-03-25T01:38:17;10.0;;;5.4;;
58306;SDS011;44116;50.884;4.768;2024-03-25T01:40:16;10.4;;;5.7;;
58306;SDS011;44116;50.884;4.768;2024-03-25T01:42:16;9.4;;;5.5;;
58306;SDS011;44116;50.884;4.768;2024-03-25T01:44:15;7.9;;;5.1;;
58306;SDS011;44116;50.884;4.768;2024-03-25T01:48:15;10.2;;;5.4;;
58306;SDS011;44116;50.884;4.768;2024-03-25T01:50:14;9.8;;;5.1;;
58306;SDS011;44116;50.884;4.768;2024-03-25T01:52:14;11.0;;;5.0;;
58306;SDS011;44116;50.884;4.768;2024-03-25T01:54:14;10.1;;;4.7;;
58306;SDS011;44116;50.884;4.768;2024-03-25T01:56:14;9.0;;;5.0;;
58306;SDS011;44116;50.884;4.768;2024-03-25T01:58:13;10.5;;;5.4;;
58306;SDS011;44116;50.884;4.768;2024-03-25T02:00:13;8.1;;;4.7;;
58306;SDS011;44116;50.884;4.768;2024-03-25T02:02:12;8.8;;;4.5;;
58306;SDS011;44116;50.884;4.768;2024-03-25T02:04:12;11.1;;;5.2;;
58306;SDS011;44116;50.884;4.768;2024-03-25T02:06:13;9.1;;;5.0;;
58306;SDS011;44116;50.884;4.768;2024-03-25T02:08:11;10.0;;;4.8;;
58306;SDS011;44116;50.884;4.768;2024-03-25T02:10:11;9.4;;;4.7;;
58306;SDS011;44116;50.884;4.768;2024-03-25T02:12:10;8.5;;;4.4;;
58306;SDS011;44116;50.884;4.768;2024-03-25T02:16:09;10.5;;;4.7;;
58306;SDS011;44116;50.884;4.768;2024-03-25T02:18:08;8.5;;;4.1;;
58306;SDS011;44116;50.884;4.768;2024-03-25T02:20:10;8.8;;;4.6;;
58306;SDS011;44116;50.884;4.768;2024-03-25T02:22:08;9.4;;;4.7;;
58306;SDS011;44116;50.884;4.768;2024-03-25T02:24:09;8.6;;;4.4;;
58306;SDS011;44116;50.884;4.768;2024-03-25T02:26:07;8.0;;;4.2;;
58306;SDS011;44116;50.884;4.768;2024-03-25T02:28:06;9.0;;;4.5;;
58306;SDS011;44116;50.884;4.768;2024-03-25T02:30:08;7.2;;;4.3;;
58306;SDS011;44116;50.884;4.768;2024-03-25T02:32:06;9.6;;;4.4;;
58306;SDS011;44116;50.884;4.768;2024-03-25T02:36:05;8.1;;;4.3;;
58306;SDS011;44116;50.884;4.768;2024-03-25T02:38:05;8.7;;;4.5;;
58306;SDS011;44116;50.884;4.768;2024-03-25T02:40:05;8.7;;;3.8;;
58306;SDS011;44116;50.884;4.768;2024-03-25T02:42:04;8.5;;;3.9;;
58306;SDS011;44116;50.884;4.768;2024-03-25T02:44:03;11.6;;;4.8;;
58306;SDS011;44116;50.884;4.768;2024-03-25T02:48:03;8.0;;;4.6;;
58306;SDS011;44116;50.884;4.768;2024-03-25T02:50:02;6.8;;;4.3;;
58306;SDS011;44116;50.884;4.768;2024-03-25T02:52:01;10.2;;;4.7;;
58306;SDS011;44116;50.884;4.768;2024-03-25T02:54:01;8.2;;;4.9;;
58306;SDS011;44116;50.884;4.768;2024-03-25T02:56:01;8.8;;;4.8;;
58306;SDS011;44116;50.884;4.768;2024-03-25T02:58:00;9.1;;;5.2;;
58306;SDS011;44116;50.884;4.768;2024-03-25T03:00:00;10.2;;;5.0;;
58306;SDS011;44116;50.884;4.768;2024-03-25T03:02:00;11.0;;;5.6;;
58306;SDS011;44116;50.884;4.768;2024-03-25T03:03:59;9.5;;;5.0;;
58306;SDS011;44116;50.884;4.768;2024-03-25T03:05:59;10.5;;;5.7;;
58306;SDS011;44116;50.884;4.768;2024-03-25T03:08:09;11.0;;;6.1;;
58306;SDS011;44116;50.884;4.768;2024-03-25T03:09:58;10.1;;;6.4;;
58306;SDS011;44116;50.884;4.768;2024-03-25T03:11:57;10.6;;;6.0;;
58306;SDS011;44116;50.884;4.768;2024-03-25T03:13:57;11.5;;;6.1;;
58306;SDS011;44116;50.884;4.768;2024-03-25T03:15:57;9.7;;;6.0;;
58306;SDS011;44116;50.884;4.768;2024-03-25T03:17:56;14.9;;;6.8;;
58306;SDS011;44116;50.884;4.768;2024-03-25T03:19:56;14.3;;;6.4;;
58306;SDS011;44116;50.884;4.768;2024-03-25T03:21:55;14.1;;;6.6;;
58306;SDS011;44116;50.884;4.768;2024-03-25T03:23:55;13.7;;;6.4;;
58306;SDS011;44116;50.884;4.768;2024-03-25T03:25:54;19.2;;;7.8;;
58306;SDS011;44116;50.884;4.768;2024-03-25T03:27:54;13.1;;;7.0;;
58306;SDS011;44116;50.884;4.768;2024-03-25T03:29:53;16.6;;;7.2;;
58306;SDS011;44116;50.884;4.768;2024-03-25T03:33:53;13.4;;;7.0;;
58306;SDS011;44116;50.884;4.768;2024-03-25T03:35:52;15.3;;;7.4;;
58306;SDS011;44116;50.884;4.768;2024-03-25T03:37:52;17.2;;;7.6;;
58306;SDS011;44116;50.884;4.768;2024-03-25T03:39:51;11.8;;;6.5;;
58306;SDS011;44116;50.884;4.768;2024-03-25T03:41:51;14.4;;;6.9;;
58306;SDS011;44116;50.884;4.768;2024-03-25T03:43:50;18.0;;;7.6;;
58306;SDS011;44116;50.884;4.768;2024-03-25T03:45:50;16.2;;;7.1;;
58306;SDS011;44116;50.884;4.768;2024-03-25T03:47:50;16.6;;;8.5;;
58306;SDS011;44116;50.884;4.768;2024-03-25T03:49:49;18.7;;;7.9;;
58306;SDS011;44116;50.884;4.768;2024-03-25T03:51:49;16.9;;;8.4;;
58306;SDS011;44116;50.884;4.768;2024-03-25T03:53:48;15.1;;;8.1;;
58306;SDS011;44116;50.884;4.768;2024-03-25T03:55:52;19.1;;;9.4;;
58306;SDS011;44116;50.884;4.768;2024-03-25T03:57:47;19.5;;;9.5;;
58306;SDS011;44116;50.884;4.768;2024-03-25T03:59:47;22.5;;;9.0;;
58306;SDS011;44116;50.884;4.768;2024-03-25T04:01:47;23.0;;;9.4;;
58306;SDS011;44116;50.884;4.768;2024-03-25T04:03:46;20.8;;;10.1;;
58306;SDS011;44116;50.884;4.768;2024-03-25T04:05:46;20.1;;;10.0;;
58306;SDS011;44116;50.884;4.768;2024-03-25T04:07:45;22.1;;;10.8;;
58306;SDS011;44116;50.884;4.768;2024-03-25T04:09:45;19.0;;;9.3;;
58306;SDS011;44116;50.884;4.768;2024-03-25T04:11:44;22.6;;;10.2;;
58306;SDS011;44116;50.884;4.768;2024-03-25T04:13:46;23.1;;;10.7;;
58306;SDS011;44116;50.884;4.768;2024-03-25T04:17:43;24.3;;;11.0;;
58306;SDS011;44116;50.884;4.768;2024-03-25T04:19:43;23.2;;;10.6;;
58306;SDS011;44116;50.884;4.768;2024-03-25T04:21:42;23.1;;;10.9;;
58306;SDS011;44116;50.884;4.768;2024-03-25T04:23:42;21.6;;;11.7;;
58306;SDS011;44116;50.884;4.768;2024-03-25T04:25:42;22.9;;;11.3;;
58306;SDS011;44116;50.884;4.768;2024-03-25T04:27:41;27.3;;;11.2;;
58306;SDS011;44116;50.884;4.768;2024-03-25T04:29:41;28.0;;;11.4;;
58306;SDS011;44116;50.884;4.768;2024-03-25T04:31:40;23.4;;;10.8;;
58306;SDS011;44116;50.884;4.768;2024-03-25T04:33:40;26.5;;;12.4;;
58306;SDS011;44116;50.884;4.768;2024-03-25T04:35:39;24.3;;;11.9;;
58306;SDS011;44116;50.884;4.768;2024-03-25T04:37:39;25.5;;;11.6;;
58306;SDS011;44116;50.884;4.768;2024-03-25T04:39:39;29.0;;;12.6;;
58306;SDS011;44116;50.884;4.768;2024-03-25T04:41:38;25.8;;;11.7;;
58306;SDS011;44116;50.884;4.768;2024-03-25T04:43:38;27.0;;;12.2;;
58306;SDS011;44116;50.884;4.768;2024-03-25T04:45:37;29.0;;;12.6;;
58306;SDS011;44116;50.884;4.768;2024-03-25T04:47:37;27.5;;;12.3;;
58306;SDS011;44116;50.884;4.768;2024-03-25T04:49:37;24.5;;;12.4;;
58306;SDS011;44116;50.884;4.768;2024-03-25T04:51:36;29.1;;;12.9;;
58306;SDS011;44116;50.884;4.768;2024-03-25T04:53:36;32.1;;;13.4;;
58306;SDS011;44116;50.884;4.768;2024-03-25T04:55:35;25.4;;;12.6;;
58306;SDS011;44116;50.884;4.768;2024-03-25T04:59:35;23.6;;;12.7;;
58306;SDS011;44116;50.884;4.768;2024-03-25T05:01:34;28.5;;;13.7;;
58306;SDS011;44116;50.884;4.768;2024-03-25T05:03:33;28.3;;;13.0;;
58306;SDS011;44116;50.884;4.768;2024-03-25T05:05:33;28.9;;;14.2;;
58306;SDS011;44116;50.884;4.768;2024-03-25T05:07:33;31.8;;;14.1;;
58306;SDS011;44116;50.884;4.768;2024-03-25T05:09:32;31.5;;;14.8;;
58306;SDS011;44116;50.884;4.768;2024-03-25T05:11:32;32.0;;;14.5;;
58306;SDS011;44116;50.884;4.768;2024-03-25T05:13:31;30.9;;;14.2;;
58306;SDS011;44116;50.884;4.768;2024-03-25T05:15:31;35.3;;;15.4;;
58306;SDS011;44116;50.884;4.768;2024-03-25T05:17:30;34.0;;;15.0;;
58306;SDS011;44116;50.884;4.768;2024-03-25T05:19:30;28.1;;;14.5;;
58306;SDS011;44116;50.884;4.768;2024-03-25T05:21:30;31.8;;;15.1;;
58306;SDS011;44116;50.884;4.768;2024-03-25T05:23:29;35.7;;;15.6;;
58306;SDS011;44116;50.884;4.768;2024-03-25T05:25:29;31.3;;;14.7;;
58306;SDS011;44116;50.884;4.768;2024-03-25T05:27:28;34.0;;;16.4;;
58306;SDS011;44116;50.884;4.768;2024-03-25T05:29:28;33.2;;;16.8;;
58306;SDS011;44116;50.884;4.768;2024-03-25T05:31:28;36.4;;;16.3;;
58306;SDS011;44116;50.884;4.768;2024-03-25T05:33:27;38.7;;;16.5;;
58306;SDS011;44116;50.884;4.768;2024-03-25T05:35:27;32.2;;;16.7;;
58306;SDS011;44116;50.884;4.768;2024-03-25T05:37:26;31.5;;;16.1;;
58306;SDS011;44116;50.884;4.768;2024-03-25T05:39:26;34.6;;;16.9;;
58306;SDS011;44116;50.884;4.768;2024-03-25T05:41:25;33.9;;;16.5;;
58306;SDS011;44116;50.884;4.768;2024-03-25T05:43:25;37.2;;;17.7;;
58306;SDS011;44116;50.884;4.768;2024-03-25T05:45:25;37.5;;;17.1;;
58306;SDS011;44116;50.884;4.768;2024-03-25T05:47:24;39.1;;;17.7;;
58306;SDS011;44116;50.884;4.768;2024-03-25T05:49:24;36.6;;;18.1;;
58306;SDS011;44116;50.884;4.768;2024-03-25T05:51:23;37.2;;;17.8;;
58306;SDS011;44116;50.884;4.768;2024-03-25T05:53:23;41.6;;;18.7;;
58306;SDS011;44116;50.884;4.768;2024-03-25T05:55:22;41.7;;;19.6;;
58306;SDS011;44116;50.884;4.768;2024-03-25T05:57:22;42.6;;;19.1;;
58306;SDS011;44116;50.884;4.768;2024-03-25T05:59:22;39.3;;;18.1;;
58306;SDS011;44116;50.884;4.768;2024-03-25T06:01:21;46.1;;;20.1;;
58306;SDS011;44116;50.884;4.768;2024-03-25T06:03:21;40.7;;;20.6;;
58306;SDS011;44116;50.884;4.768;2024-03-25T06:05:20;46.0;;;20.3;;
58306;SDS011;44116;50.884;4.768;2024-03-25T06:07:20;41.7;;;19.0;;
58306;SDS011;44116;50.884;4.768;2024-03-25T06:09:20;39.9;;;18.5;;
58306;SDS011;44116;50.884;4.768;2024-03-25T06:11:19;38.8;;;18.9;;
58306;SDS011;44116;50.884;4.768;2024-03-25T06:13:19;37.3;;;17.9;;
58306;SDS011;44116;50.884;4.768;2024-03-25T06:15:18;38.6;;;18.3;;
58306;SDS011;44116;50.884;4.768;2024-03-25T06:17:18;42.0;;;17.7;;
58306;SDS011;44116;50.884;4.768;2024-03-25T06:19:17;40.3;;;17.3;;
58306;SDS011;44116;50.884;4.768;2024-03-25T06:21:17;39.4;;;18.0;;
58306;SDS011;44116;50.884;4.768;2024-03-25T06:23:22;41.4;;;18.4;;
58306;SDS011;44116;50.884;4.768;2024-03-25T06:25:16;41.2;;;17.7;;
58306;SDS011;44116;50.884;4.768;2024-03-25T06:27:16;41.0;;;17.2;;
58306;SDS011;44116;50.884;4.768;2024-03-25T06:29:15;39.0;;;18.1;;
58306;SDS011;44116;50.884;4.768;2024-03-25T06:31:15;36.8;;;17.3;;
58306;SDS011;44116;50.884;4.768;2024-03-25T06:33:15;35.8;;;17.4;;
58306;SDS011;44116;50.884;4.768;2024-03-25T06:35:14;39.6;;;16.2;;
58306;SDS011;44116;50.884;4.768;2024-03-25T06:37:14;35.4;;;15.4;;
58306;SDS011;44116;50.884;4.768;2024-03-25T06:39:13;35.7;;;15.5;;
58306;SDS011;44116;50.884;4.768;2024-03-25T06:41:13;37.2;;;17.3;;
58306;SDS011;44116;50.884;4.768;2024-03-25T06:43:13;41.1;;;17.6;;
58306;SDS011;44116;50.884;4.768;2024-03-25T06:45:12;37.1;;;15.8;;
58306;SDS011;44116;50.884;4.768;2024-03-25T06:47:12;36.6;;;16.7;;
58306;SDS011;44116;50.884;4.768;2024-03-25T06:49:11;36.5;;;15.7;;
58306;SDS011;44116;50.884;4.768;2024-03-25T06:51:11;39.7;;;16.6;;
58306;SDS011;44116;50.884;4.768;2024-03-25T06:53:11;36.2;;;15.8;;
58306;SDS011;44116;50.884;4.768;2024-03-25T06:57:10;37.6;;;17.0;;
58306;SDS011;44116;50.884;4.768;2024-03-25T06:59:09;37.2;;;15.6;;
58306;SDS011;44116;50.884;4.768;2024-03-25T07:01:10;35.4;;;15.8;;
58306;SDS011;44116;50.884;4.768;2024-03-25T07:03:09;34.8;;;14.7;;
58306;SDS011;44116;50.884;4.768;2024-03-25T07:05:08;34.2;;;15.7;;
58306;SDS011;44116;50.884;4.768;2024-03-25T07:07:08;30.8;;;14.8;;
58306;SDS011;44116;50.884;4.768;2024-03-25T07:09:07;32.1;;;14.3;;
58306;SDS011;44116;50.884;4.768;2024-03-25T07:11:07;30.8;;;14.5;;
58306;SDS011;44116;50.884;4.768;2024-03-25T07:13:07;34.2;;;13.6;;
58306;SDS011;44116;50.884;4.768;2024-03-25T07:15:07;32.4;;;13.8;;
58306;SDS011;44116;50.884;4.768;2024-03-25T07:17:06;33.5;;;13.9;;
58306;SDS011;44116;50.884;4.768;2024-03-25T07:19:06;36.2;;;14.4;;
58306;SDS011;44116;50.884;4.768;2024-03-25T07:21:05;31.2;;;14.1;;
58306;SDS011;44116;50.884;4.768;2024-03-25T07:23:05;31.3;;;14.2;;
58306;SDS011;44116;50.884;4.768;2024-03-25T07:25:05;28.9;;;12.3;;
58306;SDS011;44116;50.884;4.768;2024-03-25T07:27:04;30.0;;;13.0;;
58306;SDS011;44116;50.884;4.768;2024-03-25T07:29:04;26.8;;;12.6;;
58306;SDS011;44116;50.884;4.768;2024-03-25T07:31:04;33.7;;;12.5;;
58306;SDS011;44116;50.884;4.768;2024-03-25T07:33:04;29.5;;;13.5;;
58306;SDS011;44116;50.884;4.768;2024-03-25T07:35:03;29.0;;;13.2;;
58306;SDS011;44116;50.884;4.768;2024-03-25T07:37:02;28.7;;;12.6;;
58306;SDS011;44116;50.884;4.768;2024-03-25T07:39:02;25.6;;;10.7;;
58306;SDS011;44116;50.884;4.768;2024-03-25T07:41:03;30.3;;;11.7;;
58306;SDS011;44116;50.884;4.768;2024-03-25T07:43:01;28.3;;;11.1;;
58306;SDS011;44116;50.884;4.768;2024-03-25T07:45:01;25.4;;;10.8;;
58306;SDS011;44116;50.884;4.768;2024-03-25T07:47:01;22.5;;;10.4;;
58306;SDS011;44116;50.884;4.768;2024-03-25T07:49:00;25.5;;;11.3;;
58306;SDS011;44116;50.884;4.768;2024-03-25T07:51:00;22.0;;;10.7;;
58306;SDS011;44116;50.884;4.768;2024-03-25T07:53:00;28.8;;;11.0;;
58306;SDS011;44116;50.884;4.768;2024-03-25T07:54:59;27.0;;;12.4;;
58306;SDS011;44116;50.884;4.768;2024-03-25T07:56:59;26.3;;;11.9;;
58306;SDS011;44116;50.884;4.768;2024-03-25T07:58:59;24.6;;;11.1;;
58306;SDS011;44116;50.884;4.768;2024-03-25T08:00:58;25.0;;;10.0;;
58306;SDS011;44116;50.884;4.768;2024-03-25T08:02:58;23.5;;;10.2;;
58306;SDS011;44116;50.884;4.768;2024-03-25T08:04:58;22.4;;;10.0;;
58306;SDS011;44116;50.884;4.768;2024-03-25T08:06:57;23.1;;;9.9;;
58306;SDS011;44116;50.884;4.768;2024-03-25T08:08:57;25.0;;;9.8;;
58306;SDS011;44116;50.884;4.768;2024-03-25T08:10:57;21.7;;;9.1;;
58306;SDS011;44116;50.884;4.768;2024-03-25T08:14:56;25.1;;;9.7;;
58306;SDS011;44116;50.884;4.768;2024-03-25T08:16:56;20.8;;;9.3;;
58306;SDS011;44116;50.884;4.768;2024-03-25T08:18:55;21.6;;;9.5;;
58306;SDS011;44116;50.884;4.768;2024-03-25T08:20:55;21.8;;;9.1;;
58306;SDS011;44116;50.884;4.768;2024-03-25T08:22:55;22.8;;;8.9;;
58306;SDS011;44116;50.884;4.768;2024-03-25T08:24:54;22.9;;;8.7;;
58306;SDS011;44116;50.884;4.768;2024-03-25T08:26:54;21.6;;;8.6;;
58306;SDS011;44116;50.884;4.768;2024-03-25T08:30:54;20.1;;;8.3;;
58306;SDS011;44116;50.884;4.768;2024-03-25T08:32:53;19.2;;;8.0;;
58306;SDS011;44116;50.884;4.768;2024-03-25T08:34:53;22.3;;;9.0;;
58306;SDS011;44116;50.884;4.768;2024-03-25T08:36:53;20.5;;;8.1;;
58306;SDS011;44116;50.884;4.768;2024-03-25T08:38:52;20.2;;;7.9;;
58306;SDS011;44116;50.884;4.768;2024-03-25T08:40:52;21.1;;;9.2;;
58306;SDS011;44116;50.884;4.768;2024-03-25T08:42:52;22.2;;;8.7;;
58306;SDS011;44116;50.884;4.768;2024-03-25T08:44:51;18.5;;;8.3;;
58306;SDS011;44116;50.884;4.768;2024-03-25T08:46:51;18.4;;;8.4;;
58306;SDS011;44116;50.884;4.768;2024-03-25T08:48:51;19.6;;;8.6;;
58306;SDS011;44116;50.884;4.768;2024-03-25T08:50:50;17.8;;;7.8;;
58306;SDS011;44116;50.884;4.768;2024-03-25T08:54:50;18.2;;;8.7;;
58306;SDS011;44116;50.884;4.768;2024-03-25T08:56:50;21.0;;;8.4;;
58306;SDS011;44116;50.884;4.768;2024-03-25T08:58:49;18.3;;;8.3;;
58306;SDS011;44116;50.884;4.768;2024-03-25T09:00:49;19.4;;;8.7;;
58306;SDS011;44116;50.884;4.768;2024-03-25T09:02:49;16.4;;;8.2;;
58306;SDS011;44116;50.884;4.768;2024-03-25T09:04:48;21.4;;;9.0;;
58306;SDS011;44116;50.884;4.768;2024-03-25T09:06:48;18.6;;;8.1;;
58306;SDS011;44116;50.884;4.768;2024-03-25T09:08:48;16.0;;;7.5;;
58306;SDS011;44116;50.884;4.768;2024-03-25T09:10:47;17.1;;;7.7;;
58306;SDS011;44116;50.884;4.768;2024-03-25T09:12:47;18.4;;;7.8;;
58306;SDS011;44116;50.884;4.768;2024-03-25T09:14:47;16.3;;;7.4;;
58306;SDS011;44116;50.884;4.768;2024-03-25T09:16:47;16.1;;;6.9;;
58306;SDS011;44116;50.884;4.768;2024-03-25T09:18:46;17.2;;;7.2;;
58306;SDS011;44116;50.884;4.768;2024-03-25T09:20:46;13.8;;;7.0;;
58306;SDS011;44116;50.884;4.768;2024-03-25T09:22:46;20.9;;;7.1;;
58306;SDS011;44116;50.884;4.768;2024-03-25T09:24:45;14.9;;;6.6;;
58306;SDS011;44116;50.884;4.768;2024-03-25T09:26:45;14.4;;;5.8;;
58306;SDS011;44116;50.884;4.768;2024-03-25T09:28:45;15.4;;;5.9;;
58306;SDS011;44116;50.884;4.768;2024-03-25T09:30:45;17.2;;;6.4;;
58306;SDS011;44116;50.884;4.768;2024-03-25T09:32:45;15.8;;;6.2;;
58306;SDS011;44116;50.884;4.768;2024-03-25T09:34:44;13.1;;;5.6;;
58306;SDS011;44116;50.884;4.768;2024-03-25T09:36:44;16.8;;;5.7;;
58306;SDS011;44116;50.884;4.768;2024-03-25T09:38:43;13.5;;;5.4;;
58306;SDS011;44116;50.884;4.768;2024-03-25T09:40:43;14.5;;;5.8;;
58306;SDS011;44116;50.884;4.768;2024-03-25T09:42:47;12.3;;;5.1;;
58306;SDS011;44116;50.884;4.768;2024-03-25T09:46:43;12.0;;;4.8;;
58306;SDS011;44116;50.884;4.768;2024-03-25T09:48:42;14.3;;;5.3;;
58306;SDS011;44116;50.884;4.768;2024-03-25T09:50:43;14.0;;;4.9;;
58306;SDS011;44116;50.884;4.768;2024-03-25T09:52:42;12.8;;;5.3;;
58306;SDS011;44116;50.884;4.768;2024-03-25T09:54:41;9.6;;;5.1;;
58306;SDS011;44116;50.884;4.768;2024-03-25T09:56:41;11.0;;;4.8;;
58306;SDS011;44116;50.884;4.768;2024-03-25T09:58:41;12.7;;;4.4;;
58306;SDS011;44116;50.884;4.768;2024-03-25T10:00:41;12.2;;;4.8;;
58306;SDS011;44116;50.884;4.768;2024-03-25T10:02:41;10.5;;;4.9;;
58306;SDS011;44116;50.884;4.768;2024-03-25T10:04:44;9.9;;;4.7;;
58306;SDS011;44116;50.884;4.768;2024-03-25T10:06:40;12.3;;;4.8;;
58306;SDS011;44116;50.884;4.768;2024-03-25T10:08:39;13.9;;;4.9;;
58306;SDS011;44116;50.884;4.768;2024-03-25T10:10:39;11.8;;;4.4;;
58306;SDS011;44116;50.884;4.768;2024-03-25T10:12:39;11.0;;;4.8;;
58306;SDS011;44116;50.884;4.768;2024-03-25T10:14:39;12.2;;;5.2;;
58306;SDS011;44116;50.884;4.768;2024-03-25T10:16:38;11.9;;;5.1;;
58306;SDS011;44116;50.884;4.768;2024-03-25T10:18:38;11.5;;;4.5;;
58306;SDS011;44116;50.884;4.768;2024-03-25T10:20:38;10.7;;;4.2;;
58306;SDS011;44116;50.884;4.768;2024-03-25T10:22:40;11.2;;;4.5;;
58306;SDS011;44116;50.884;4.768;2024-03-25T10:24:38;10.2;;;4.4;;
58306;SDS011;44116;50.884;4.768;2024-03-25T10:26:37;9.5;;;4.5;;
58306;SDS011;44116;50.884;4.768;2024-03-25T10:28:37;11.6;;;5.1;;
58306;SDS011;44116;50.884;4.768;2024-03-25T10:34:36;9.9;;;4.2;;
58306;SDS011;44116;50.884;4.768;2024-03-25T10:36:36;11.5;;;4.5;;
58306;SDS011;44116;50.884;4.768;2024-03-25T10:38:36;13.3;;;4.7;;
58306;SDS011;44116;50.884;4.768;2024-03-25T10:40:37;11.5;;;5.0;;
58306;SDS011;44116;50.884;4.768;2024-03-25T10:42:38;11.4;;;4.6;;
58306;SDS011;44116;50.884;4.768;2024-03-25T10:44:35;11.8;;;4.9;;
58306;SDS011;44116;50.884;4.768;2024-03-25T10:46:35;13.5;;;5.2;;
58306;SDS011;44116;50.884;4.768;2024-03-25T10:48:37;9.4;;;4.2;;
58306;SDS011;44116;50.884;4.768;2024-03-25T10:50:37;13.4;;;4.9;;
58306;SDS011;44116;50.884;4.768;2024-03-25T10:52:36;11.8;;;4.6;;
58306;SDS011;44116;50.884;4.768;2024-03-25T10:54:34;11.0;;;4.3;;
58306;SDS011;44116;50.884;4.768;2024-03-25T10:56:34;9.6;;;3.5;;
58306;SDS011;44116;50.884;4.768;2024-03-25T10:58:34;10.4;;;3.7;;
58306;SDS011;44116;50.884;4.768;2024-03-25T11:00:34;8.7;;;3.6;;
58306;SDS011;44116;50.884;4.768;2024-03-25T11:02:33;8.8;;;3.5;;
58306;SDS011;44116;50.884;4.768;2024-03-25T11:04:33;9.1;;;3.1;;
58306;SDS011;44116;50.884;4.768;2024-03-25T11:06:33;9.4;;;3.3;;
58306;SDS011;44116;50.884;4.768;2024-03-25T11:08:33;8.6;;;3.1;;
58306;SDS011;44116;50.884;4.768;2024-03-25T11:10:32;9.3;;;3.7;;
58306;SDS011;44116;50.884;4.768;2024-03-25T11:12:33;11.2;;;3.9;;
58306;SDS011;44116;50.884;4.768;2024-03-25T11:14:32;10.2;;;3.5;;
58306;SDS011;44116;50.884;4.768;2024-03-25T11:16:32;9.7;;;4.0;;
58306;SDS011;44116;50.884;4.768;2024-03-25T11:18:32;12.1;;;4.8;;
58306;SDS011;44116;50.884;4.768;2024-03-25T11:20:31;8.0;;;3.3;;
58306;SDS011;44116;50.884;4.768;2024-03-25T11:22:31;9.6;;;3.5;;
58306;SDS011;44116;50.884;4.768;2024-03-25T11:24:31;10.1;;;4.8;;
58306;SDS011;44116;50.884;4.768;2024-03-25T11:26:31;12.1;;;5.3;;
58306;SDS011;44116;50.884;4.768;2024-03-25T11:28:31;8.9;;;3.8;;
58306;SDS011;44116;50.884;4.768;2024-03-25T11:30:31;10.5;;;5.0;;
58306;SDS011;44116;50.884;4.768;2024-03-25T11:34:30;9.2;;;3.8;;
58306;SDS011;44116;50.884;4.768;2024-03-25T11:36:30;8.1;;;3.0;;
58306;SDS011;44116;50.884;4.768;2024-03-25T11:40:30;9.7;;;2.7;;
58306;SDS011;44116;50.884;4.768;2024-03-25T11:42:30;6.6;;;3.0;;
58306;SDS011;44116;50.884;4.768;2024-03-25T11:44:30;6.4;;;2.9;;
58306;SDS011;44116;50.884;4.768;2024-03-25T11:46:30;10.7;;;3.7;;
58306;SDS011;44116;50.884;4.768;2024-03-25T11:48:29;9.4;;;2.8;;
58306;SDS011;44116;50.884;4.768;2024-03-25T11:50:29;6.6;;;2.7;;
58306;SDS011;44116;50.884;4.768;2024-03-25T11:52:31;7.4;;;2.9;;
58306;SDS011;44116;50.884;4.768;2024-03-25T11:54:28;8.9;;;2.7;;
58306;SDS011;44116;50.884;4.768;2024-03-25T11:56:28;7.1;;;3.0;;
58306;SDS011;44116;50.884;4.768;2024-03-25T12:00:28;9.4;;;3.2;;
58306;SDS011;44116;50.884;4.768;2024-03-25T12:02:27;6.9;;;2.9;;
58306;SDS011;44116;50.884;4.768;2024-03-25T12:06:27;9.3;;;3.2;;
58306;SDS011;44116;50.884;4.768;2024-03-25T12:08:27;4.7;;;2.3;;
58306;SDS011;44116;50.884;4.768;2024-03-25T12:10:27;7.0;;;2.8;;
58306;SDS011;44116;50.884;4.768;2024-03-25T12:12:28;6.7;;;2.6;;
58306;SDS011;44116;50.884;4.768;2024-03-25T12:14:27;7.0;;;2.7;;
58306;SDS011;44116;50.884;4.768;2024-03-25T12:16:26;6.6;;;2.5;;
58306;SDS011;44116;50.884;4.768;2024-03-25T12:18:26;7.3;;;2.6;;
58306;SDS011;44116;50.884;4.768;2024-03-25T12:20:26;4.3;;;2.4;;
58306;SDS011;44116;50.884;4.768;2024-03-25T12:22:26;7.7;;;2.8;;
58306;SDS011;44116;50.884;4.768;2024-03-25T12:24:26;6.3;;;2.4;;
58306;SDS011;44116;50.884;4.768;2024-03-25T12:26:25;6.7;;;2.5;;
58306;SDS011;44116;50.884;4.768;2024-03-25T12:28:25;5.7;;;2.6;;
58306;SDS011;44116;50.884;4.768;2024-03-25T12:30:25;6.7;;;2.4;;
58306;SDS011;44116;50.884;4.768;2024-03-25T12:32:31;6.1;;;2.8;;
58306;SDS011;44116;50.884;4.768;2024-03-25T12:34:25;6.8;;;2.9;;
58306;SDS011;44116;50.884;4.768;2024-03-25T12:36:24;6.0;;;2.5;;
58306;SDS011;44116;50.884;4.768;2024-03-25T12:40:25;6.9;;;2.7;;
58306;SDS011;44116;50.884;4.768;2024-03-25T12:42:24;6.1;;;2.5;;
58306;SDS011;44116;50.884;4.768;2024-03-25T12:44:24;4.2;;;2.2;;
58306;SDS011;44116;50.884;4.768;2024-03-25T12:46:24;6.5;;;2.6;;
58306;SDS011;44116;50.884;4.768;2024-03-25T12:48:23;7.3;;;2.8;;
58306;SDS011;44116;50.884;4.768;2024-03-25T12:50:23;6.9;;;2.5;;
58306;SDS011;44116;50.884;4.768;2024-03-25T12:52:23;6.4;;;2.9;;
58306;SDS011;44116;50.884;4.768;2024-03-25T12:54:23;5.5;;;2.3;;